sensor_id;sensor_type;location;lat;lon;timestamp;temperature;humidity
21090;DHT22;10703;51.020;6.128;2023-09-19T00:00:22;15.50;99.90
21090;DHT22;10703;51.020;6.128;2023-09-19T00:02:56;15.40;99.90
21090;DHT22;10703;51.020;6.128;2023-09-19T00:05:24;15.40;99.90
21090;DHT22;10703;51.020;6.128;2023-09-19T00:07:55;15.40;99.90
21090;DHT22;10703;51.020;6.128;2023-09-19T00:10:22;15.50;99.90
21090;DHT22;10703;51.020;6.128;2023-09-19T00:12:51;15.50;99.90
21090;DHT22;10703;51.020;6.128;2023-09-19T00:15:23;15.50;99.90
21090;DHT22;10703;51.020;6.128;2023-09-19T00:17:49;15.50;99.90
21090;DHT22;10703;51.020;6.128;2023-09-19T00:20:19;15.40;99.90
21090;DHT22;10703;51.020;6.128;2023-09-19T00:22:45;15.40;99.90
21090;DHT22;10703;51.020;6.128;2023-09-19T00:25:12;15.30;99.90
21090;DHT22;10703;51.020;6.128;2023-09-19T00:27:39;15.50;99.90
21090;DHT22;10703;51.020;6.128;2023-09-19T00:30:12;15.40;99.90
21090;DHT22;10703;51.020;6.128;2023-09-19T00:32:48;15.40;99.90
21090;DHT22;10703;51.020;6.128;2023-09-19T00:35:16;15.40;99.90
21090;DHT22;10703;51.020;6.128;2023-09-19T00:37:43;15.40;99.90
21090;DHT22;10703;51.020;6.128;2023-09-19T00:40:10;15.40;99.90
21090;DHT22;10703;51.020;6.128;2023-09-19T00:42:42;15.30;99.90
21090;DHT22;10703;51.020;6.128;2023-09-19T00:45:10;15.30;99.90
21090;DHT22;10703;51.020;6.128;2023-09-19T00:47:46;15.20;99.90
21090;DHT22;10703;51.020;6.128;2023-09-19T00:50:14;15.30;99.90
21090;DHT22;10703;51.020;6.128;2023-09-19T00:52:44;15.20;99.90
21090;DHT22;10703;51.020;6.128;2023-09-19T00:55:14;15.20;99.90
21090;DHT22;10703;51.020;6.128;2023-09-19T00:57:42;15.20;99.90
21090;DHT22;10703;51.020;6.128;2023-09-19T01:00:11;15.10;99.90
21090;DHT22;10703;51.020;6.128;2023-09-19T01:02:42;15.20;99.90
21090;DHT22;10703;51.020;6.128;2023-09-19T01:05:10;15.20;99.90
21090;DHT22;10703;51.020;6.128;2023-09-19T01:07:37;15.30;99.90
21090;DHT22;10703;51.020;6.128;2023-09-19T01:10:09;15.40;99.90
21090;DHT22;10703;51.020;6.128;2023-09-19T01:13:05;15.40;99.90
21090;DHT22;10703;51.020;6.128;2023-09-19T01:18:27;15.40;99.90
21090;DHT22;10703;51.020;6.128;2023-09-19T01:21:04;15.30;99.90
21090;DHT22;10703;51.020;6.128;2023-09-19T01:26:55;15.30;99.90
21090;DHT22;10703;51.020;6.128;2023-09-19T01:29:39;15.30;99.90
21090;DHT22;10703;51.020;6.128;2023-09-19T01:32:08;15.20;99.90
21090;DHT22;10703;51.020;6.128;2023-09-19T01:34:55;15.10;99.90
21090;DHT22;10703;51.020;6.128;2023-09-19T01:37:30;15.20;99.90
21090;DHT22;10703;51.020;6.128;2023-09-19T01:40:00;15.10;99.90
21090;DHT22;10703;51.020;6.128;2023-09-19T01:42:43;15.10;99.90
21090;DHT22;10703;51.020;6.128;2023-09-19T01:51:01;15.00;99.90
21090;DHT22;10703;51.020;6.128;2023-09-19T01:53:44;15.10;99.90
21090;DHT22;10703;51.020;6.128;2023-09-19T01:56:22;14.90;99.90
21090;DHT22;10703;51.020;6.128;2023-09-19T01:58:54;14.90;99.90
21090;DHT22;10703;51.020;6.128;2023-09-19T02:01:24;15.00;99.90
21090;DHT22;10703;51.020;6.128;2023-09-19T02:03:52;15.10;99.90
21090;DHT22;10703;51.020;6.128;2023-09-19T02:06:20;15.00;99.90
21090;DHT22;10703;51.020;6.128;2023-09-19T02:08:47;15.00;99.90
21090;DHT22;10703;51.020;6.128;2023-09-19T02:11:15;15.00;99.90
21090;DHT22;10703;51.020;6.128;2023-09-19T02:13:43;15.00;99.90
21090;DHT22;10703;51.020;6.128;2023-09-19T02:16:10;15.00;99.90
21090;DHT22;10703;51.020;6.128;2023-09-19T02:18:38;15.00;99.90
21090;DHT22;10703;51.020;6.128;2023-09-19T02:21:05;14.90;99.90
21090;DHT22;10703;51.020;6.128;2023-09-19T02:23:33;14.90;99.90
21090;DHT22;10703;51.020;6.128;2023-09-19T02:26:00;14.90;99.90
21090;DHT22;10703;51.020;6.128;2023-09-19T02:28:32;15.00;99.90
21090;DHT22;10703;51.020;6.128;2023-09-19T02:30:59;14.90;99.90
21090;DHT22;10703;51.020;6.128;2023-09-19T02:33:26;14.90;99.90
21090;DHT22;10703;51.020;6.128;2023-09-19T02:35:56;14.90;99.90
21090;DHT22;10703;51.020;6.128;2023-09-19T02:38:26;14.90;99.90
21090;DHT22;10703;51.020;6.128;2023-09-19T02:40:53;14.90;99.90
21090;DHT22;10703;51.020;6.128;2023-09-19T02:43:22;15.10;99.90
21090;DHT22;10703;51.020;6.128;2023-09-19T02:45:49;14.90;99.90
21090;DHT22;10703;51.020;6.128;2023-09-19T02:48:16;14.80;99.90
21090;DHT22;10703;51.020;6.128;2023-09-19T02:50:45;14.90;99.90
21090;DHT22;10703;51.020;6.128;2023-09-19T02:53:12;14.80;99.90
21090;DHT22;10703;51.020;6.128;2023-09-19T02:55:40;14.80;99.90
21090;DHT22;10703;51.020;6.128;2023-09-19T02:58:07;14.80;99.90
21090;DHT22;10703;51.020;6.128;2023-09-19T03:00:42;14.80;99.90
21090;DHT22;10703;51.020;6.128;2023-09-19T03:03:13;14.80;99.90
21090;DHT22;10703;51.020;6.128;2023-09-19T03:05:42;14.70;99.90
21090;DHT22;10703;51.020;6.128;2023-09-19T03:08:14;14.80;99.90
21090;DHT22;10703;51.020;6.128;2023-09-19T03:10:41;14.60;99.90
21090;DHT22;10703;51.020;6.128;2023-09-19T03:13:08;14.60;99.90
21090;DHT22;10703;51.020;6.128;2023-09-19T03:15:36;14.60;99.90
21090;DHT22;10703;51.020;6.128;2023-09-19T03:18:05;14.60;99.90
21090;DHT22;10703;51.020;6.128;2023-09-19T03:20:32;14.60;99.90
21090;DHT22;10703;51.020;6.128;2023-09-19T03:22:59;14.70;99.90
21090;DHT22;10703;51.020;6.128;2023-09-19T03:25:26;14.60;99.90
21090;DHT22;10703;51.020;6.128;2023-09-19T03:27:56;14.70;99.90
21090;DHT22;10703;51.020;6.128;2023-09-19T03:30:24;14.60;99.90
21090;DHT22;10703;51.020;6.128;2023-09-19T03:32:51;14.80;99.90
21090;DHT22;10703;51.020;6.128;2023-09-19T03:35:18;14.60;99.90
21090;DHT22;10703;51.020;6.128;2023-09-19T03:37:45;14.60;99.90
21090;DHT22;10703;51.020;6.128;2023-09-19T03:40:11;14.70;99.90
21090;DHT22;10703;51.020;6.128;2023-09-19T03:42:40;14.70;99.90
21090;DHT22;10703;51.020;6.128;2023-09-19T03:45:08;14.60;99.90
21090;DHT22;10703;51.020;6.128;2023-09-19T03:47:38;14.70;99.90
21090;DHT22;10703;51.020;6.128;2023-09-19T03:50:06;14.80;99.90
21090;DHT22;10703;51.020;6.128;2023-09-19T03:52:38;14.70;99.90
21090;DHT22;10703;51.020;6.128;2023-09-19T03:55:04;14.60;99.90
21090;DHT22;10703;51.020;6.128;2023-09-19T03:57:32;14.70;99.90
21090;DHT22;10703;51.020;6.128;2023-09-19T03:59:58;14.60;99.90
21090;DHT22;10703;51.020;6.128;2023-09-19T04:02:25;14.50;99.90
21090;DHT22;10703;51.020;6.128;2023-09-19T04:04:52;14.50;99.90
21090;DHT22;10703;51.020;6.128;2023-09-19T04:07:19;14.50;99.90
21090;DHT22;10703;51.020;6.128;2023-09-19T04:09:49;14.50;99.90
21090;DHT22;10703;51.020;6.128;2023-09-19T04:12:15;14.50;99.90
21090;DHT22;10703;51.020;6.128;2023-09-19T04:14:45;14.50;99.90
21090;DHT22;10703;51.020;6.128;2023-09-19T04:17:11;14.60;99.90
21090;DHT22;10703;51.020;6.128;2023-09-19T04:19:38;14.40;99.90
21090;DHT22;10703;51.020;6.128;2023-09-19T04:22:05;14.40;99.90
21090;DHT22;10703;51.020;6.128;2023-09-19T04:24:32;14.50;99.90
21090;DHT22;10703;51.020;6.128;2023-09-19T04:26:59;14.50;99.90
21090;DHT22;10703;51.020;6.128;2023-09-19T04:29:25;14.50;99.90
21090;DHT22;10703;51.020;6.128;2023-09-19T04:31:56;14.40;99.90
21090;DHT22;10703;51.020;6.128;2023-09-19T04:34:23;14.40;99.90
21090;DHT22;10703;51.020;6.128;2023-09-19T04:36:50;14.30;99.90
21090;DHT22;10703;51.020;6.128;2023-09-19T04:39:17;14.40;99.90
21090;DHT22;10703;51.020;6.128;2023-09-19T04:41:44;14.50;99.90
21090;DHT22;10703;51.020;6.128;2023-09-19T04:44:14;14.50;99.90
21090;DHT22;10703;51.020;6.128;2023-09-19T04:46:40;14.50;99.90
21090;DHT22;10703;51.020;6.128;2023-09-19T04:49:07;14.60;99.90
21090;DHT22;10703;51.020;6.128;2023-09-19T04:51:34;14.60;99.90
21090;DHT22;10703;51.020;6.128;2023-09-19T04:54:02;14.60;99.90
21090;DHT22;10703;51.020;6.128;2023-09-19T04:56:29;14.70;99.90
21090;DHT22;10703;51.020;6.128;2023-09-19T04:58:56;14.70;99.90
21090;DHT22;10703;51.020;6.128;2023-09-19T05:01:25;14.70;99.90
21090;DHT22;10703;51.020;6.128;2023-09-19T05:03:52;14.60;99.90
21090;DHT22;10703;51.020;6.128;2023-09-19T05:06:19;14.60;99.90
21090;DHT22;10703;51.020;6.128;2023-09-19T05:08:50;14.70;99.90
21090;DHT22;10703;51.020;6.128;2023-09-19T05:11:18;14.70;99.90
21090;DHT22;10703;51.020;6.128;2023-09-19T05:13:49;14.80;99.90
21090;DHT22;10703;51.020;6.128;2023-09-19T05:16:20;14.80;99.90
21090;DHT22;10703;51.020;6.128;2023-09-19T05:18:47;14.80;99.90
21090;DHT22;10703;51.020;6.128;2023-09-19T05:21:14;14.70;99.90
21090;DHT22;10703;51.020;6.128;2023-09-19T05:23:40;14.60;99.90
21090;DHT22;10703;51.020;6.128;2023-09-19T05:26:08;14.60;99.90
21090;DHT22;10703;51.020;6.128;2023-09-19T05:28:35;14.60;99.90
21090;DHT22;10703;51.020;6.128;2023-09-19T05:31:02;14.70;99.90
21090;DHT22;10703;51.020;6.128;2023-09-19T05:33:29;14.70;99.90
21090;DHT22;10703;51.020;6.128;2023-09-19T05:35:58;14.60;99.90
21090;DHT22;10703;51.020;6.128;2023-09-19T05:38:24;14.70;99.90
21090;DHT22;10703;51.020;6.128;2023-09-19T05:40:53;14.70;99.90
21090;DHT22;10703;51.020;6.128;2023-09-19T05:43:20;14.70;99.90
21090;DHT22;10703;51.020;6.128;2023-09-19T05:45:47;14.70;99.90
21090;DHT22;10703;51.020;6.128;2023-09-19T05:48:14;14.70;99.90
21090;DHT22;10703;51.020;6.128;2023-09-19T05:50:43;14.60;99.90
21090;DHT22;10703;51.020;6.128;2023-09-19T05:53:13;14.60;99.90
21090;DHT22;10703;51.020;6.128;2023-09-19T05:55:41;14.60;99.90
21090;DHT22;10703;51.020;6.128;2023-09-19T05:58:08;14.60;99.90
21090;DHT22;10703;51.020;6.128;2023-09-19T06:00:36;14.60;99.90
21090;DHT22;10703;51.020;6.128;2023-09-19T06:03:05;14.70;99.90
21090;DHT22;10703;51.020;6.128;2023-09-19T06:05:33;14.70;99.90
21090;DHT22;10703;51.020;6.128;2023-09-19T06:07:59;14.70;99.90
21090;DHT22;10703;51.020;6.128;2023-09-19T06:10:27;14.70;99.90
21090;DHT22;10703;51.020;6.128;2023-09-19T06:12:58;14.70;99.90
21090;DHT22;10703;51.020;6.128;2023-09-19T06:15:25;14.70;99.90
21090;DHT22;10703;51.020;6.128;2023-09-19T06:17:54;14.70;99.90
21090;DHT22;10703;51.020;6.128;2023-09-19T06:20:25;14.70;99.90
21090;DHT22;10703;51.020;6.128;2023-09-19T06:22:53;14.70;99.90
21090;DHT22;10703;51.020;6.128;2023-09-19T06:25:20;14.70;99.90
21090;DHT22;10703;51.020;6.128;2023-09-19T06:27:50;14.70;99.90
21090;DHT22;10703;51.020;6.128;2023-09-19T06:30:22;14.80;99.90
21090;DHT22;10703;51.020;6.128;2023-09-19T06:32:56;14.80;99.90
21090;DHT22;10703;51.020;6.128;2023-09-19T06:35:23;14.80;99.90
21090;DHT22;10703;51.020;6.128;2023-09-19T06:37:52;14.80;99.90
21090;DHT22;10703;51.020;6.128;2023-09-19T06:40:19;14.90;99.90
21090;DHT22;10703;51.020;6.128;2023-09-19T06:42:47;15.00;99.90
21090;DHT22;10703;51.020;6.128;2023-09-19T06:45:16;14.90;99.90
21090;DHT22;10703;51.020;6.128;2023-09-19T06:47:46;15.00;99.90
21090;DHT22;10703;51.020;6.128;2023-09-19T06:50:18;15.00;99.90
21090;DHT22;10703;51.020;6.128;2023-09-19T06:52:46;15.00;99.90
21090;DHT22;10703;51.020;6.128;2023-09-19T06:55:21;15.10;99.90
21090;DHT22;10703;51.020;6.128;2023-09-19T06:57:51;15.10;99.90
21090;DHT22;10703;51.020;6.128;2023-09-19T07:00:18;15.20;99.90
21090;DHT22;10703;51.020;6.128;2023-09-19T07:02:58;15.20;99.90
21090;DHT22;10703;51.020;6.128;2023-09-19T07:05:27;15.30;99.90
21090;DHT22;10703;51.020;6.128;2023-09-19T07:07:54;15.30;99.90
21090;DHT22;10703;51.020;6.128;2023-09-19T07:10:22;15.30;99.90
21090;DHT22;10703;51.020;6.128;2023-09-19T07:12:58;15.40;99.90
21090;DHT22;10703;51.020;6.128;2023-09-19T07:15:26;15.40;99.90
21090;DHT22;10703;51.020;6.128;2023-09-19T07:17:54;15.50;99.90
21090;DHT22;10703;51.020;6.128;2023-09-19T07:20:23;15.60;99.90
21090;DHT22;10703;51.020;6.128;2023-09-19T07:22:55;15.70;99.90
21090;DHT22;10703;51.020;6.128;2023-09-19T07:25:22;15.90;99.90
21090;DHT22;10703;51.020;6.128;2023-09-19T07:27:49;16.10;99.90
21090;DHT22;10703;51.020;6.128;2023-09-19T07:30:17;16.10;99.90
21090;DHT22;10703;51.020;6.128;2023-09-19T07:32:44;16.20;99.90
21090;DHT22;10703;51.020;6.128;2023-09-19T07:35:11;16.20;99.90
21090;DHT22;10703;51.020;6.128;2023-09-19T07:37:38;16.40;99.90
21090;DHT22;10703;51.020;6.128;2023-09-19T07:40:06;16.30;99.90
21090;DHT22;10703;51.020;6.128;2023-09-19T07:42:38;16.40;99.90
21090;DHT22;10703;51.020;6.128;2023-09-19T07:45:08;16.60;99.90
21090;DHT22;10703;51.020;6.128;2023-09-19T07:47:35;16.70;99.90
21090;DHT22;10703;51.020;6.128;2023-09-19T07:50:03;16.80;99.90
21090;DHT22;10703;51.020;6.128;2023-09-19T07:52:30;16.60;99.90
21090;DHT22;10703;51.020;6.128;2023-09-19T07:54:56;16.90;99.90
21090;DHT22;10703;51.020;6.128;2023-09-19T07:57:24;16.80;99.90
21090;DHT22;10703;51.020;6.128;2023-09-19T07:59:51;16.90;99.90
21090;DHT22;10703;51.020;6.128;2023-09-19T08:02:17;17.00;99.90
21090;DHT22;10703;51.020;6.128;2023-09-19T08:04:45;17.00;99.90
21090;DHT22;10703;51.020;6.128;2023-09-19T08:07:13;17.00;99.90
21090;DHT22;10703;51.020;6.128;2023-09-19T08:09:40;17.10;99.90
21090;DHT22;10703;51.020;6.128;2023-09-19T08:12:07;17.20;99.90
21090;DHT22;10703;51.020;6.128;2023-09-19T08:14:38;17.20;99.90
21090;DHT22;10703;51.020;6.128;2023-09-19T08:17:07;17.30;99.90
21090;DHT22;10703;51.020;6.128;2023-09-19T08:19:35;17.20;99.90
21090;DHT22;10703;51.020;6.128;2023-09-19T08:22:03;17.30;99.90
21090;DHT22;10703;51.020;6.128;2023-09-19T08:24:30;17.40;99.90
21090;DHT22;10703;51.020;6.128;2023-09-19T08:26:57;17.50;99.90
21090;DHT22;10703;51.020;6.128;2023-09-19T08:29:24;17.60;99.90
21090;DHT22;10703;51.020;6.128;2023-09-19T08:31:55;17.70;99.90
21090;DHT22;10703;51.020;6.128;2023-09-19T08:34:23;17.80;99.90
21090;DHT22;10703;51.020;6.128;2023-09-19T08:36:54;17.90;99.90
21090;DHT22;10703;51.020;6.128;2023-09-19T08:39:27;18.10;99.90
21090;DHT22;10703;51.020;6.128;2023-09-19T08:42:01;18.10;99.90
21090;DHT22;10703;51.020;6.128;2023-09-19T08:44:28;18.00;99.90
21090;DHT22;10703;51.020;6.128;2023-09-19T08:47:14;18.00;99.90
21090;DHT22;10703;51.020;6.128;2023-09-19T08:52:32;17.90;99.90
21090;DHT22;10703;51.020;6.128;2023-09-19T08:55:02;17.80;99.90
21090;DHT22;10703;51.020;6.128;2023-09-19T08:57:37;18.00;99.90
21090;DHT22;10703;51.020;6.128;2023-09-19T09:00:08;17.90;99.90
21090;DHT22;10703;51.020;6.128;2023-09-19T09:02:39;17.80;99.90
21090;DHT22;10703;51.020;6.128;2023-09-19T09:05:10;17.90;99.90
21090;DHT22;10703;51.020;6.128;2023-09-19T09:07:38;18.10;99.90
21090;DHT22;10703;51.020;6.128;2023-09-19T09:10:05;18.40;99.90
21090;DHT22;10703;51.020;6.128;2023-09-19T09:12:35;18.60;99.90
21090;DHT22;10703;51.020;6.128;2023-09-19T09:15:03;18.20;99.90
21090;DHT22;10703;51.020;6.128;2023-09-19T09:17:30;18.40;99.90
21090;DHT22;10703;51.020;6.128;2023-09-19T09:19:57;18.50;99.90
21090;DHT22;10703;51.020;6.128;2023-09-19T09:22:24;18.40;99.90
21090;DHT22;10703;51.020;6.128;2023-09-19T09:24:53;18.60;99.90
21090;DHT22;10703;51.020;6.128;2023-09-19T09:27:30;18.70;99.90
21090;DHT22;10703;51.020;6.128;2023-09-19T09:29:59;18.60;99.90
21090;DHT22;10703;51.020;6.128;2023-09-19T09:32:30;18.80;99.90
21090;DHT22;10703;51.020;6.128;2023-09-19T09:35:06;18.80;99.90
21090;DHT22;10703;51.020;6.128;2023-09-19T09:37:36;18.70;99.90
21090;DHT22;10703;51.020;6.128;2023-09-19T09:40:05;18.60;99.90
21090;DHT22;10703;51.020;6.128;2023-09-19T09:42:46;18.60;99.90
21090;DHT22;10703;51.020;6.128;2023-09-19T09:45:17;18.70;99.90
21090;DHT22;10703;51.020;6.128;2023-09-19T09:47:49;18.80;99.90
21090;DHT22;10703;51.020;6.128;2023-09-19T09:50:32;18.90;99.90
21090;DHT22;10703;51.020;6.128;2023-09-19T09:53:19;19.00;99.90
21090;DHT22;10703;51.020;6.128;2023-09-19T09:56:07;19.10;99.90
21090;DHT22;10703;51.020;6.128;2023-09-19T09:58:49;19.00;99.90
21090;DHT22;10703;51.020;6.128;2023-09-19T10:01:16;19.40;99.90
21090;DHT22;10703;51.020;6.128;2023-09-19T10:03:44;19.20;99.90
21090;DHT22;10703;51.020;6.128;2023-09-19T10:06:15;19.20;99.90
21090;DHT22;10703;51.020;6.128;2023-09-19T10:09:09;19.20;99.90
21090;DHT22;10703;51.020;6.128;2023-09-19T10:11:48;18.60;99.90
21090;DHT22;10703;51.020;6.128;2023-09-19T10:14:28;18.60;99.90
21090;DHT22;10703;51.020;6.128;2023-09-19T10:17:00;18.80;99.90
21090;DHT22;10703;51.020;6.128;2023-09-19T10:19:37;19.10;99.90
21090;DHT22;10703;51.020;6.128;2023-09-19T10:22:05;19.00;99.90
21090;DHT22;10703;51.020;6.128;2023-09-19T10:24:33;18.80;99.90
21090;DHT22;10703;51.020;6.128;2023-09-19T10:27:06;18.80;99.90
21090;DHT22;10703;51.020;6.128;2023-09-19T10:29:36;18.70;99.90
21090;DHT22;10703;51.020;6.128;2023-09-19T10:32:06;18.60;99.90
21090;DHT22;10703;51.020;6.128;2023-09-19T10:34:35;18.60;99.90
21090;DHT22;10703;51.020;6.128;2023-09-19T10:37:04;18.60;99.90
21090;DHT22;10703;51.020;6.128;2023-09-19T10:39:33;18.80;99.90
21090;DHT22;10703;51.020;6.128;2023-09-19T10:42:02;19.00;99.90
21090;DHT22;10703;51.020;6.128;2023-09-19T10:44:32;19.20;99.90
21090;DHT22;10703;51.020;6.128;2023-09-19T10:46:59;19.10;99.90
21090;DHT22;10703;51.020;6.128;2023-09-19T10:49:26;19.30;99.90
21090;DHT22;10703;51.020;6.128;2023-09-19T10:51:55;19.50;99.90
21090;DHT22;10703;51.020;6.128;2023-09-19T10:54:27;19.30;99.90
21090;DHT22;10703;51.020;6.128;2023-09-19T10:56:55;19.60;99.90
21090;DHT22;10703;51.020;6.128;2023-09-19T10:59:25;19.60;99.90
21090;DHT22;10703;51.020;6.128;2023-09-19T11:01:53;19.60;99.90
21090;DHT22;10703;51.020;6.128;2023-09-19T11:07:14;19.90;99.90
21090;DHT22;10703;51.020;6.128;2023-09-19T11:09:53;19.60;99.90
21090;DHT22;10703;51.020;6.128;2023-09-19T11:15:03;19.60;99.90
21090;DHT22;10703;51.020;6.128;2023-09-19T11:17:40;20.10;99.90
21090;DHT22;10703;51.020;6.128;2023-09-19T11:30:35;20.70;99.90
21090;DHT22;10703;51.020;6.128;2023-09-19T11:33:23;20.80;99.90
21090;DHT22;10703;51.020;6.128;2023-09-19T11:36:11;21.10;99.90
21090;DHT22;10703;51.020;6.128;2023-09-19T11:43:48;20.90;99.90
21090;DHT22;10703;51.020;6.128;2023-09-19T11:46:19;21.40;99.90
21090;DHT22;10703;51.020;6.128;2023-09-19T11:48:48;21.40;99.90
21090;DHT22;10703;51.020;6.128;2023-09-19T11:51:17;21.30;99.90
21090;DHT22;10703;51.020;6.128;2023-09-19T11:53:55;21.90;99.90
21090;DHT22;10703;51.020;6.128;2023-09-19T11:56:24;22.00;99.90
21090;DHT22;10703;51.020;6.128;2023-09-19T11:58:54;22.20;99.90
21090;DHT22;10703;51.020;6.128;2023-09-19T12:01:32;22.30;99.90
21090;DHT22;10703;51.020;6.128;2023-09-19T12:04:02;22.30;99.90
21090;DHT22;10703;51.020;6.128;2023-09-19T12:06:31;22.50;99.90
21090;DHT22;10703;51.020;6.128;2023-09-19T12:09:02;21.60;99.90
21090;DHT22;10703;51.020;6.128;2023-09-19T12:11:41;21.50;99.90
21090;DHT22;10703;51.020;6.128;2023-09-19T12:14:10;21.40;99.90
21090;DHT22;10703;51.020;6.128;2023-09-19T12:16:37;22.60;99.90
21090;DHT22;10703;51.020;6.128;2023-09-19T12:19:21;22.30;99.90
21090;DHT22;10703;51.020;6.128;2023-09-19T12:22:02;21.80;99.90
21090;DHT22;10703;51.020;6.128;2023-09-19T12:24:32;22.40;99.90
21090;DHT22;10703;51.020;6.128;2023-09-19T12:27:04;22.60;99.90
21090;DHT22;10703;51.020;6.128;2023-09-19T12:29:48;22.90;99.20
21090;DHT22;10703;51.020;6.128;2023-09-19T12:32:34;22.40;99.90
21090;DHT22;10703;51.020;6.128;2023-09-19T12:35:01;22.40;99.50
21090;DHT22;10703;51.020;6.128;2023-09-19T12:37:33;22.60;99.90
21090;DHT22;10703;51.020;6.128;2023-09-19T12:40:07;22.20;99.90
21090;DHT22;10703;51.020;6.128;2023-09-19T12:42:56;22.80;99.90
21090;DHT22;10703;51.020;6.128;2023-09-19T12:45:25;22.70;99.90
21090;DHT22;10703;51.020;6.128;2023-09-19T12:48:21;22.20;99.90
21090;DHT22;10703;51.020;6.128;2023-09-19T12:51:09;21.70;99.90
21090;DHT22;10703;51.020;6.128;2023-09-19T12:53:42;21.50;99.90
21090;DHT22;10703;51.020;6.128;2023-09-19T12:56:13;21.40;99.90
21090;DHT22;10703;51.020;6.128;2023-09-19T12:58:49;21.50;99.90
21090;DHT22;10703;51.020;6.128;2023-09-19T13:01:16;21.40;99.90
21090;DHT22;10703;51.020;6.128;2023-09-19T13:03:43;21.70;99.90
21090;DHT22;10703;51.020;6.128;2023-09-19T13:06:11;21.60;99.90
21090;DHT22;10703;51.020;6.128;2023-09-19T13:08:39;21.50;99.90
21090;DHT22;10703;51.020;6.128;2023-09-19T13:11:13;22.00;99.90
21090;DHT22;10703;51.020;6.128;2023-09-19T13:13:50;22.00;99.90
21090;DHT22;10703;51.020;6.128;2023-09-19T13:16:21;21.80;99.90
21090;DHT22;10703;51.020;6.128;2023-09-19T13:18:53;21.10;99.90
21090;DHT22;10703;51.020;6.128;2023-09-19T13:21:33;20.90;99.90
21090;DHT22;10703;51.020;6.128;2023-09-19T13:24:22;20.60;99.90
21090;DHT22;10703;51.020;6.128;2023-09-19T13:26:49;20.80;99.90
21090;DHT22;10703;51.020;6.128;2023-09-19T13:29:16;20.70;99.90
21090;DHT22;10703;51.020;6.128;2023-09-19T13:31:49;20.60;99.90
21090;DHT22;10703;51.020;6.128;2023-09-19T13:34:16;20.80;99.90
21090;DHT22;10703;51.020;6.128;2023-09-19T13:36:44;20.80;99.90
21090;DHT22;10703;51.020;6.128;2023-09-19T13:39:11;20.40;99.90
21090;DHT22;10703;51.020;6.128;2023-09-19T13:41:39;20.00;99.90
21090;DHT22;10703;51.020;6.128;2023-09-19T13:44:06;19.80;99.90
21090;DHT22;10703;51.020;6.128;2023-09-19T13:46:33;19.80;99.90
21090;DHT22;10703;51.020;6.128;2023-09-19T13:49:01;20.10;99.90
21090;DHT22;10703;51.020;6.128;2023-09-19T13:51:33;20.40;99.90
21090;DHT22;10703;51.020;6.128;2023-09-19T13:53:59;20.70;99.90
21090;DHT22;10703;51.020;6.128;2023-09-19T13:56:26;21.30;99.90
21090;DHT22;10703;51.020;6.128;2023-09-19T13:58:57;21.10;99.90
21090;DHT22;10703;51.020;6.128;2023-09-19T14:01:24;20.80;99.90
21090;DHT22;10703;51.020;6.128;2023-09-19T14:03:53;21.10;99.90
21090;DHT22;10703;51.020;6.128;2023-09-19T14:06:20;20.80;99.90
21090;DHT22;10703;51.020;6.128;2023-09-19T14:08:47;20.60;99.90
21090;DHT22;10703;51.020;6.128;2023-09-19T14:11:14;20.10;99.90
21090;DHT22;10703;51.020;6.128;2023-09-19T14:13:43;19.90;99.90
21090;DHT22;10703;51.020;6.128;2023-09-19T14:16:16;19.90;99.90
21090;DHT22;10703;51.020;6.128;2023-09-19T14:18:45;20.00;99.90
21090;DHT22;10703;51.020;6.128;2023-09-19T14:21:13;19.70;99.90
21090;DHT22;10703;51.020;6.128;2023-09-19T14:23:40;19.70;99.90
21090;DHT22;10703;51.020;6.128;2023-09-19T14:26:08;19.80;99.90
21090;DHT22;10703;51.020;6.128;2023-09-19T14:28:35;19.60;99.90
21090;DHT22;10703;51.020;6.128;2023-09-19T14:31:09;20.10;99.90
21090;DHT22;10703;51.020;6.128;2023-09-19T14:33:37;20.30;99.90
21090;DHT22;10703;51.020;6.128;2023-09-19T14:36:05;19.90;99.90
21090;DHT22;10703;51.020;6.128;2023-09-19T14:38:37;20.40;99.90
21090;DHT22;10703;51.020;6.128;2023-09-19T14:41:05;20.30;99.90
21090;DHT22;10703;51.020;6.128;2023-09-19T14:43:32;20.10;99.90
21090;DHT22;10703;51.020;6.128;2023-09-19T14:46:05;20.00;99.90
21090;DHT22;10703;51.020;6.128;2023-09-19T14:48:37;20.30;99.90
21090;DHT22;10703;51.020;6.128;2023-09-19T14:51:05;19.90;99.90
21090;DHT22;10703;51.020;6.128;2023-09-19T14:53:32;19.80;99.90
21090;DHT22;10703;51.020;6.128;2023-09-19T14:56:02;19.90;99.90
21090;DHT22;10703;51.020;6.128;2023-09-19T14:58:31;19.90;99.90
21090;DHT22;10703;51.020;6.128;2023-09-19T15:01:05;19.90;99.90
21090;DHT22;10703;51.020;6.128;2023-09-19T15:03:35;19.90;99.90
21090;DHT22;10703;51.020;6.128;2023-09-19T15:06:08;19.80;99.90
21090;DHT22;10703;51.020;6.128;2023-09-19T15:08:36;19.90;99.90
21090;DHT22;10703;51.020;6.128;2023-09-19T15:11:05;19.80;99.90
21090;DHT22;10703;51.020;6.128;2023-09-19T15:13:34;19.90;99.90
21090;DHT22;10703;51.020;6.128;2023-09-19T15:16:01;19.70;99.90
21090;DHT22;10703;51.020;6.128;2023-09-19T15:18:29;19.60;99.90
21090;DHT22;10703;51.020;6.128;2023-09-19T15:21:18;20.00;99.90
21090;DHT22;10703;51.020;6.128;2023-09-19T15:23:45;19.50;99.90
21090;DHT22;10703;51.020;6.128;2023-09-19T15:26:14;19.40;99.90
21090;DHT22;10703;51.020;6.128;2023-09-19T15:28:44;19.60;99.90
21090;DHT22;10703;51.020;6.128;2023-09-19T15:31:12;19.50;99.90
21090;DHT22;10703;51.020;6.128;2023-09-19T15:33:40;19.50;99.90
21090;DHT22;10703;51.020;6.128;2023-09-19T15:36:07;19.70;99.90
21090;DHT22;10703;51.020;6.128;2023-09-19T15:38:55;20.30;99.90
21090;DHT22;10703;51.020;6.128;2023-09-19T15:41:30;20.80;99.90
21090;DHT22;10703;51.020;6.128;2023-09-19T15:43:58;21.10;99.90
21090;DHT22;10703;51.020;6.128;2023-09-19T15:46:28;21.00;99.90
21090;DHT22;10703;51.020;6.128;2023-09-19T15:48:56;20.70;99.90
21090;DHT22;10703;51.020;6.128;2023-09-19T15:51:24;20.70;99.90
21090;DHT22;10703;51.020;6.128;2023-09-19T15:53:52;21.30;99.90
21090;DHT22;10703;51.020;6.128;2023-09-19T15:56:20;21.60;99.90
21090;DHT22;10703;51.020;6.128;2023-09-19T15:58:48;21.30;99.90
21090;DHT22;10703;51.020;6.128;2023-09-19T16:01:16;20.80;99.90
21090;DHT22;10703;51.020;6.128;2023-09-19T16:03:50;20.30;99.90
21090;DHT22;10703;51.020;6.128;2023-09-19T16:06:29;20.10;99.90
21090;DHT22;10703;51.020;6.128;2023-09-19T16:08:57;21.00;99.90
21090;DHT22;10703;51.020;6.128;2023-09-19T16:11:26;21.40;99.90
21090;DHT22;10703;51.020;6.128;2023-09-19T16:13:54;21.20;99.90
21090;DHT22;10703;51.020;6.128;2023-09-19T16:16:21;20.90;99.90
21090;DHT22;10703;51.020;6.128;2023-09-19T16:18:52;20.30;99.90
21090;DHT22;10703;51.020;6.128;2023-09-19T16:21:20;20.70;99.90
21090;DHT22;10703;51.020;6.128;2023-09-19T16:23:47;20.00;99.90